Amsterdam, Netherlands
Current Conditions -  °F | °C
As of 11:25 AM on Saturday 25 Oct 2014 (Local Time) from EHAM Reporting Station
Scattered Clouds Scattered Clouds  
Wind Chill: 57°   Ceiling: Unl
Heat Index: 57°   Visibility: 6mi
Dew Point: 52°   Wind: 8mph
Humidity: 82%   Direction: 270°W
Pressure: 30.03"   Gusts: NA
Location:  52.35°N, 4.9°E
Report Text: EHAM 250925Z 27007KT 9999 FEW020 SCT045 14/11 Q1017 NOSIG
Loading
Personal Weather Stations






























Interactive Weather Map
Tropical Storm Tracking
New forecast layout! Learn more

10-Day Weather Forecast

Advertisements
Track Severe Weather on mobile